Time;durP1;ratioP1;P1;durP2;ratioP2;P2;SDS_P1;SDS_P2;PMS_P1;PMS_P2;Temp;Humidity;BMP_temperature;BMP_pressure;BME280_temperature;BME280_humidity;BME280_pressure;Samples;Min_cycle;Max_cycle;Signal;HPM_P1;HPM_P2
2022/11/30 00:01:47;;;;;;;31.00;21.40;;;;;;;-3.41;97.11;97938.08;107625;1266;68467;-68
2022/11/30 00:04:16;;;;;;;37.60;23.90;;;;;;;-3.40;96.96;97934.14;107655;1266;58915;-68
2022/11/30 00:06:45;;;;;;;33.20;22.90;;;;;;;-3.41;96.75;97931.42;107627;1262;58852;-68
2022/11/30 00:09:15;;;;;;;36.50;23.60;;;;;;;-3.40;97.60;97926.48;107659;1266;69795;-68
2022/11/30 00:11:44;;;;;;;33.40;21.90;;;;;;;-3.41;97.70;97922.40;107652;1262;69048;-68
2022/11/30 00:14:13;;;;;;;42.00;26.50;;;;;;;-3.41;98.65;97922.40;107731;1267;68534;-69
2022/11/30 00:16:43;;;;;;;36.90;24.00;;;;;;;-3.42;99.60;97924.27;107641;1263;58940;-68
2022/11/30 00:19:12;;;;;;;47.10;29.00;;;;;;;-3.46;98.73;97921.93;107717;1264;58894;-67
2022/11/30 00:21:41;;;;;;;32.60;20.20;;;;;;;-3.48;97.76;97920.05;107604;1263;70137;-68
2022/11/30 00:24:10;;;;;;;38.10;24.00;;;;;;;-3.49;96.74;97917.85;107681;1267;69133;-67
2022/11/30 00:26:39;;;;;;;31.50;19.10;;;;;;;-3.46;95.22;97918.86;107604;1266;69287;-67
2022/11/30 00:29:08;;;;;;;56.20;27.90;;;;;;;-3.41;93.53;97924.42;107650;1262;58933;-67
2022/11/30 00:31:38;;;;;;;43.90;25.90;;;;;;;-3.37;95.89;97923.38;107649;1267;58852;-67
2022/11/30 00:34:09;;;;;;;44.50;27.50;;;;;;;-3.34;93.59;97922.83;107628;1266;69675;-67
2022/11/30 00:36:38;;;;;;;44.00;26.10;;;;;;;-3.31;93.11;97925.88;107657;1267;69095;-68
2022/11/30 00:39:08;;;;;;;43.60;26.60;;;;;;;-3.30;92.73;97924.49;107790;1266;69918;-67
2022/11/30 00:41:38;;;;;;;37.80;23.20;;;;;;;-3.26;94.43;97923.77;107713;1267;58896;-67
2022/11/30 00:44:08;;;;;;;44.20;28.40;;;;;;;-3.25;96.10;97924.28;107732;1266;58846;-67
2022/11/30 00:46:38;;;;;;;40.40;23.20;;;;;;;-3.30;96.18;97924.50;107625;1266;71198;-68
2022/11/30 00:49:08;;;;;;;34.70;21.30;;;;;;;-3.32;94.16;97923.16;107632;1264;69932;-68
2022/11/30 00:51:38;;;;;;;33.00;20.50;;;;;;;-3.33;95.46;97920.09;107610;1268;69705;-68
2022/11/30 00:54:09;;;;;;;40.30;24.00;;;;;;;-3.34;94.60;97917.20;107655;1266;58957;-66
2022/11/30 00:56:38;;;;;;;34.50;22.00;;;;;;;-3.32;93.72;97919.76;107725;1262;58980;-67
2022/11/30 00:59:08;;;;;;;27.90;17.70;;;;;;;-3.30;94.28;97918.52;107696;1267;70117;-67
2022/11/30 01:01:37;;;;;;;27.10;17.10;;;;;;;-3.27;93.40;97920.05;107658;1266;68498;-67
2022/11/30 01:04:08;;;;;;;30.10;19.00;;;;;;;-3.26;94.06;97919.85;107655;1264;68631;-68
2022/11/30 01:06:38;;;;;;;27.90;18.00;;;;;;;-3.26;94.49;97915.09;107677;1266;58984;-68
2022/11/30 01:09:08;;;;;;;26.70;18.90;;;;;;;-3.25;94.08;97909.80;107694;1266;58885;-67
2022/11/30 01:11:37;;;;;;;30.20;22.40;;;;;;;-3.28;96.00;97908.80;107660;1267;68768;-67
2022/11/30 01:14:07;;;;;;;32.80;21.20;;;;;;;-3.32;96.25;97904.41;107666;1266;69296;-67
2022/11/30 01:16:36;;;;;;;31.70;19.30;;;;;;;-3.33;94.39;97901.85;107614;1266;69622;-66
2022/11/30 01:19:05;;;;;;;43.40;26.70;;;;;;;-3.30;93.36;97903.70;107654;1263;58925;-68
2022/11/30 01:21:35;;;;;;;37.10;22.10;;;;;;;-3.25;93.07;97904.85;107698;1267;58953;-67
2022/11/30 01:24:05;;;;;;;37.30;23.30;;;;;;;-3.23;93.55;97902.61;107657;1267;70488;-67
2022/11/30 01:26:35;;;;;;;;;;;;;;;-3.25;94.53;97902.46;107642;1266;68270;-67
2022/11/30 01:29:05;;;;;;;34.60;21.80;;;;;;;-3.26;94.77;97898.39;107688;1267;69862;-68
2022/11/30 01:31:35;;;;;;;36.20;22.70;;;;;;;-3.27;94.78;97898.06;107609;1266;59335;-67
2022/11/30 01:34:05;;;;;;;39.60;23.90;;;;;;;-3.27;94.44;97899.77;107645;1263;58935;-67
2022/11/30 01:36:37;;;;;;;41.60;25.50;;;;;;;-3.24;95.35;97899.54;107754;1266;70373;-68
2022/11/30 01:39:08;;;;;;;39.40;27.20;;;;;;;-3.26;96.71;97901.96;107685;1267;69163;-68
2022/11/30 01:41:38;;;;;;;61.30;36.70;;;;;;;-3.41;95.38;97902.95;107661;1267;69889;-68
2022/11/30 01:44:07;;;;;;;70.50;42.90;;;;;;;-3.62;95.22;97903.15;107091;1263;780956;-67
2022/11/30 01:46:53;;;;;;;67.60;39.20;;;;;;;-3.78;94.59;97906.34;107676;1267;58932;-67
2022/11/30 01:49:35;;;;;;;58.30;36.60;;;;;;;-3.97;94.18;97904.28;107639;1267;70244;-67
2022/11/30 01:52:11;;;;;;;63.70;38.70;;;;;;;-4.13;96.17;97904.23;107719;1263;68770;-67
2022/11/30 01:54:47;;;;;;;51.40;29.90;;;;;;;-4.19;98.09;97907.83;107691;1267;69200;-67
2022/11/30 01:57:40;;;;;;;53.40;34.40;;;;;;;-4.24;97.43;97903.27;107713;1267;58951;-67
2022/11/30 02:00:12;;;;;;;43.50;27.30;;;;;;;-4.26;97.26;97903.44;107677;1266;58895;-67
2022/11/30 02:02:58;;;;;;;39.40;25.00;;;;;;;-4.24;95.17;97902.60;107658;1258;69994;-67
2022/11/30 02:05:29;;;;;;;42.20;27.90;;;;;;;-4.21;95.14;97904.77;107673;1267;69274;-67
2022/11/30 02:08:00;;;;;;;43.80;29.00;;;;;;;-4.18;95.26;97904.75;107745;1267;69170;-67
2022/11/30 02:10:36;;;;;;;45.60;28.10;;;;;;;-4.15;97.87;97902.02;107627;1262;58895;-67
2022/11/30 02:13:56;;;;;;;36.20;24.00;;;;;;;-4.14;98.86;97907.63;107690;1266;59330;-67
2022/11/30 02:16:35;;;;;;;50.60;31.70;;;;;;;-4.15;99.63;97904.91;107529;1267;71184;-67
2022/11/30 02:19:24;;;;;;;45.60;29.30;;;;;;;-4.18;99.63;97908.67;107781;1267;69211;-67
2022/11/30 02:22:31;;;;;;;36.10;24.00;;;;;;;-4.20;100.00;97905.97;107611;1267;69744;-67
2022/11/30 02:25:16;;;;;;;39.50;24.90;;;;;;;-4.22;100.00;97903.75;107615;1267;58897;-67
2022/11/30 02:28:17;;;;;;;33.10;20.90;;;;;;;-4.23;100.00;97906.50;107636;1269;58905;-67
2022/11/30 02:30:51;;;;;;;50.50;29.50;;;;;;;-4.23;98.62;97909.23;107667;1264;70882;-67
2022/11/30 02:33:26;;;;;;;54.50;29.80;;;;;;;-4.24;96.25;97911.10;107842;1267;68663;-67
2022/11/30 02:35:58;;;;;;;44.80;27.90;;;;;;;-4.26;95.79;97915.02;107698;1266;68309;-67
2022/11/30 02:38:28;;;;;;;48.70;30.60;;;;;;;-4.26;97.24;97918.25;107763;1264;59013;-68
2022/11/30 02:40:59;;;;;;;38.50;23.80;;;;;;;-4.28;98.24;97919.46;107633;1267;58962;-67
2022/11/30 02:43:30;;;;;;;40.10;24.20;;;;;;;-4.31;98.48;97918.11;107699;1267;69843;-67
2022/11/30 02:46:13;;;;;;;35.60;21.90;;;;;;;-4.32;99.54;97917.27;107666;1266;69888;-67
2022/11/30 02:48:59;;;;;;;31.00;20.60;;;;;;;-4.31;100.00;97917.77;107732;1263;69266;-67
2022/11/30 02:51:31;;;;;;;28.10;17.00;;;;;;;-4.31;99.95;97920.66;107672;1267;58967;-67
2022/11/30 02:54:02;;;;;;;28.70;17.20;;;;;;;-4.31;98.99;97922.37;107691;1262;58927;-67
2022/11/30 02:56:33;;;;;;;28.90;19.10;;;;;;;-4.33;97.15;97924.42;107877;1267;70446;-68
2022/11/30 02:59:04;;;;;;;30.90;18.40;;;;;;;-4.36;97.29;97922.05;107645;1267;68215;-67
2022/11/30 03:01:35;;;;;;;26.30;17.40;;;;;;;-4.37;97.07;97925.80;107649;1266;69206;-67
2022/11/30 03:04:06;;;;;;;24.10;16.80;;;;;;;-4.37;96.17;97923.43;107722;1272;58907;-69
2022/11/30 03:06:37;;;;;;;27.60;15.60;;;;;;;-4.34;94.47;97923.92;107818;1267;58925;-68
2022/11/30 03:09:08;;;;;;;28.80;18.80;;;;;;;-4.31;94.65;97920.84;107786;1266;69440;-66
2022/11/30 03:11:39;;;;;;;32.90;20.20;;;;;;;-4.28;94.78;97922.02;107688;1267;68309;-66
2022/11/30 03:14:08;;;;;;;29.30;19.20;;;;;;;-4.25;94.57;97920.13;107706;1267;69383;-66
2022/11/30 03:16:38;;;;;;;36.10;20.40;;;;;;;-4.26;94.40;97924.20;107700;1263;58930;-66
2022/11/30 03:19:08;;;;;;;37.40;24.10;;;;;;;-4.27;93.58;97923.88;107669;1267;58893;-66
2022/11/30 03:21:38;;;;;;;35.20;21.30;;;;;;;-4.30;96.30;97923.73;107698;1267;70618;-66
2022/11/30 03:24:08;;;;;;;25.80;15.80;;;;;;;-4.32;96.42;97928.34;107765;1267;68150;-66
2022/11/30 03:26:38;;;;;;;33.50;20.60;;;;;;;-4.32;95.81;97925.27;107635;1266;69370;-66
2022/11/30 03:29:08;;;;;;;29.80;18.90;;;;;;;-4.32;96.73;97921.70;107652;1267;58946;-66
2022/11/30 03:31:39;;;;;;;36.40;23.20;;;;;;;-4.32;97.56;97919.65;107715;1267;58914;-67
2022/11/30 03:34:10;;;;;;;23.60;16.50;;;;;;;-4.35;97.25;97923.58;107686;1263;69946;-67
2022/11/30 03:36:41;;;;;;;;;;;;;;;-4.38;97.14;97923.60;107761;1266;67456;-66
2022/11/30 03:39:12;;;;;;;31.60;18.90;;;;;;;-4.40;97.77;97925.30;107835;1267;68299;-66
2022/11/30 03:41:43;;;;;;;35.50;20.00;;;;;;;-4.39;98.86;97925.48;107933;1267;59014;-67
2022/11/30 03:44:14;;;;;;;29.00;19.30;;;;;;;-4.40;99.94;97926.83;107656;1263;58899;-66
2022/11/30 03:46:45;;;;;;;39.40;22.70;;;;;;;-4.41;99.71;97924.47;108061;1267;69695;-66
2022/11/30 03:49:14;;;;;;;38.60;22.60;;;;;;;-4.41;99.90;97926.69;107840;1264;69158;-66
2022/11/30 03:51:43;;;;;;;31.60;19.40;;;;;;;-4.42;100.00;97924.82;107671;1262;68127;-67
2022/11/30 03:54:14;;;;;;;34.40;21.00;;;;;;;-4.42;100.00;97928.21;107890;1267;58978;-66
2022/11/30 03:56:43;;;;;;;;;;;;;;;-4.42;100.00;97931.12;107724;1267;58915;-67
2022/11/30 03:59:13;;;;;;;37.50;22.50;;;;;;;-4.44;100.00;97927.70;107618;1264;70811;-67
2022/11/30 04:01:43;;;;;;;39.70;23.30;;;;;;;-4.44;100.00;97928.05;107680;1266;68444;-66
2022/11/30 04:04:13;;;;;;;32.60;19.60;;;;;;;-4.46;100.00;97926.36;107667;1267;69160;-67
2022/11/30 04:06:43;;;;;;;28.20;17.90;;;;;;;-4.46;100.00;97929.94;107677;1266;58916;-66
2022/11/30 04:09:12;;;;;;;31.00;18.30;;;;;;;-4.48;100.00;97933.70;107652;1267;58878;-66
2022/11/30 04:11:41;;;;;;;25.10;16.20;;;;;;;-4.49;100.00;97931.64;107660;1268;69640;-66
2022/11/30 04:14:11;;;;;;;36.10;21.20;;;;;;;-4.50;100.00;97926.04;107683;1268;69052;-68
2022/11/30 04:16:40;;;;;;;25.40;18.50;;;;;;;-4.50;100.00;97920.25;107627;1266;69890;-66
2022/11/30 04:19:10;;;;;;;30.20;19.30;;;;;;;-4.49;100.00;97919.06;107746;1266;58908;-66
2022/11/30 04:21:39;;;;;;;33.30;21.30;;;;;;;-4.49;100.00;97916.84;107664;1267;58905;-66
2022/11/30 04:24:08;;;;;;;26.50;16.80;;;;;;;-4.47;100.00;97922.30;107664;1266;71175;-67
2022/11/30 04:26:37;;;;;;;31.90;19.80;;;;;;;-4.41;100.00;97926.85;107657;1263;69866;-66
2022/11/30 04:29:07;;;;;;;31.30;19.40;;;;;;;-4.41;100.00;97925.98;107636;1267;69005;-66
2022/11/30 04:31:36;;;;;;;33.90;19.80;;;;;;;-4.40;100.00;97931.09;107638;1267;58932;-67
2022/11/30 04:34:05;;;;;;;25.30;17.00;;;;;;;-4.41;100.00;97930.25;107821;1266;58956;-66
2022/11/30 04:36:35;;;;;;;36.50;22.40;;;;;;;-4.43;100.00;97929.08;107940;1266;71280;-66
2022/11/30 04:39:05;;;;;;;23.90;16.20;;;;;;;-4.43;100.00;97928.73;107867;1267;68265;-67
2022/11/30 04:41:36;;;;;;;21.80;14.60;;;;;;;-4.46;100.00;97924.66;107732;1267;68232;-66
2022/11/30 04:44:04;;;;;;;28.50;17.50;;;;;;;-4.48;100.00;97922.63;107668;1267;59380;-67
2022/11/30 04:46:35;;;;;;;30.80;19.80;;;;;;;-4.48;100.00;97924.17;107772;1266;58867;-66
2022/11/30 04:49:05;;;;;;;30.90;18.80;;;;;;;-4.50;100.00;97928.42;107725;1267;70525;-67
2022/11/30 04:51:35;;;;;;;26.70;17.50;;;;;;;-4.52;100.00;97926.05;107677;1268;69152;-67
2022/11/30 04:54:04;;;;;;;34.80;21.20;;;;;;;-4.52;100.00;97928.11;107722;1262;69278;-68
2022/11/30 04:56:34;;;;;;;31.90;19.40;;;;;;;-4.54;100.00;97931.51;107810;1264;58957;-67
2022/11/30 04:59:04;;;;;;;33.50;22.10;;;;;;;-4.60;100.00;97933.41;107865;1268;58944;-67
2022/11/30 05:01:33;;;;;;;29.30;18.20;;;;;;;-4.68;100.00;97936.84;107690;1267;70578;-67
2022/11/30 05:04:02;;;;;;;35.20;22.20;;;;;;;-4.73;100.00;97939.06;107716;1267;69834;-67
2022/11/30 05:06:34;;;;;;;25.60;18.60;;;;;;;-4.75;100.00;97937.89;107683;1269;69271;-67
2022/11/30 05:09:02;;;;;;;38.20;22.10;;;;;;;-4.77;100.00;97941.63;107648;1267;59179;-67
2022/11/30 05:11:32;;;;;;;31.00;20.40;;;;;;;-4.80;100.00;97938.94;107648;1267;58856;-67
2022/11/30 05:14:01;;;;;;;28.20;20.00;;;;;;;-4.83;100.00;97932.64;107692;1267;69780;-66
2022/11/30 05:16:30;;;;;;;28.40;21.20;;;;;;;-4.86;100.00;97930.77;107797;1267;69147;-67
2022/11/30 05:19:00;;;;;;;36.00;22.40;;;;;;;-4.86;100.00;97930.27;107656;1267;69485;-67
2022/11/30 05:21:30;;;;;;;36.10;21.90;;;;;;;-4.85;99.99;97932.81;107608;1267;58968;-67
2022/11/30 05:23:59;;;;;;;34.40;20.70;;;;;;;-4.82;98.02;97935.69;107659;1266;59026;-67
2022/11/30 05:26:27;;;;;;;28.40;17.70;;;;;;;-4.80;96.59;97938.25;107675;1267;69755;-66
2022/11/30 05:28:56;;;;;;;26.90;16.50;;;;;;;-4.81;96.09;97936.20;107671;1267;68269;-66
2022/11/30 05:31:25;;;;;;;40.60;25.80;;;;;;;-4.82;97.34;97937.39;107707;1267;69211;-67
2022/11/30 05:33:55;;;;;;;38.60;24.80;;;;;;;-4.81;99.93;97940.45;107678;1267;58924;-68
2022/11/30 05:36:24;;;;;;;47.70;32.30;;;;;;;-4.79;99.41;97942.15;107697;1267;58908;-66
2022/11/30 05:38:54;;;;;;;53.80;32.10;;;;;;;-4.74;97.38;97939.23;107641;1267;68767;-66
2022/11/30 05:41:23;;;;;;;;;;;;;;;-4.70;98.41;97944.67;107668;1267;68400;-66
2022/11/30 05:43:53;;;;;;;60.20;34.80;;;;;;;-4.68;97.99;97940.92;107667;1266;69247;-66
2022/11/30 05:46:22;;;;;;;61.50;35.60;;;;;;;-4.67;97.11;97949.09;107671;1266;58962;-66
2022/11/30 05:48:51;;;;;;;61.00;38.10;;;;;;;-4.65;97.00;97951.12;107657;1267;58900;-66
2022/11/30 05:51:21;;;;;;;69.60;41.50;;;;;;;-4.65;98.32;97947.04;107647;1267;71199;-65
2022/11/30 05:53:50;;;;;;;56.80;33.40;;;;;;;-4.63;99.74;97950.76;107687;1267;69147;-66
2022/11/30 05:56:21;;;;;;;54.80;31.30;;;;;;;-4.60;99.97;97949.55;107680;1268;67666;-67
2022/11/30 05:58:50;;;;;;;42.60;26.40;;;;;;;-4.54;100.00;97955.66;107756;1267;58964;-67
2022/11/30 06:01:24;;;;;;;71.50;38.80;;;;;;;-4.49;100.00;97956.15;107740;1267;58959;-69
2022/11/30 06:03:53;;;;;;;78.70;47.10;;;;;;;-4.46;100.00;97960.56;107714;1267;71023;-70
2022/11/30 06:06:23;;;;;;;100.80;60.90;;;;;;;-4.42;100.00;97961.57;107700;1267;69819;-71
2022/11/30 06:08:53;;;;;;;71.60;44.80;;;;;;;-4.37;100.00;97959.66;107668;1266;69904;-70
2022/11/30 06:11:21;;;;;;;74.90;43.90;;;;;;;-4.31;100.00;97960.66;107791;1267;58880;-69
2022/11/30 06:13:51;;;;;;;54.90;38.10;;;;;;;-4.26;100.00;97964.20;107802;1262;58866;-70
2022/11/30 06:16:19;;;;;;;53.80;35.80;;;;;;;-4.22;100.00;97974.23;108029;1267;70550;-70
2022/11/30 06:18:49;;;;;;;58.40;38.50;;;;;;;-4.18;100.00;97980.34;107962;1267;69545;-69
2022/11/30 06:21:18;;;;;;;62.10;40.80;;;;;;;-4.16;100.00;97980.84;107984;1263;69089;-68
2022/11/30 06:23:52;;;;;;;47.00;29.90;;;;;;;-4.17;99.93;97981.17;107970;1266;58991;-69
2022/11/30 06:26:21;;;;;;;56.80;34.10;;;;;;;-4.18;99.22;97976.25;107973;1266;58868;-69
2022/11/30 06:28:50;;;;;;;48.80;31.90;;;;;;;-4.20;98.49;97976.43;107974;1266;71217;-70
2022/11/30 06:31:18;;;;;;;50.40;32.80;;;;;;;-4.16;99.04;97982.38;107982;1263;68768;-70
2022/11/30 06:33:48;;;;;;;59.80;36.50;;;;;;;-4.10;99.67;97987.79;107946;1267;69294;-70
2022/11/30 06:36:21;;;;;;;50.10;33.60;;;;;;;-4.01;99.99;97986.20;107989;1267;58960;-70
2022/11/30 06:38:51;;;;;;;51.10;31.40;;;;;;;-3.92;100.00;97985.48;107957;1265;58868;-70
2022/11/30 06:41:19;;;;;;;55.10;34.10;;;;;;;-3.85;100.00;97990.71;108005;1267;70600;-71
2022/11/30 06:43:48;;;;;;;51.10;31.30;;;;;;;-3.80;100.00;97991.70;108540;1267;69208;-70
2022/11/30 06:46:18;;;;;;;40.80;27.40;;;;;;;-3.72;100.00;97988.23;108359;1262;69861;-70
2022/11/30 06:48:51;;;;;;;46.80;31.40;;;;;;;-3.62;100.00;97994.46;108016;1265;58929;-70
2022/11/30 06:51:19;;;;;;;55.00;33.20;;;;;;;-3.51;100.00;97993.70;108007;1267;58887;-70
2022/11/30 06:53:48;;;;;;;56.10;33.90;;;;;;;-3.40;100.00;97994.30;107943;1267;71059;-70
2022/11/30 06:56:18;;;;;;;41.80;28.00;;;;;;;-3.29;100.00;98001.03;108000;1267;68285;-70
2022/11/30 06:58:46;;;;;;;58.20;36.10;;;;;;;-3.19;100.00;98003.84;107991;1267;69120;-68
2022/11/30 07:01:15;;;;;;;57.80;36.60;;;;;;;-3.10;100.00;98002.41;108004;1267;58885;-69
2022/11/30 07:03:44;;;;;;;46.90;32.80;;;;;;;-3.08;99.30;98002.55;107987;1267;58907;-69
2022/11/30 07:06:14;;;;;;;54.20;32.90;;;;;;;-3.01;98.64;98005.21;108003;1265;68583;-70
2022/11/30 07:08:43;;;;;;;55.20;34.80;;;;;;;-2.94;98.34;98003.09;107981;1266;69698;-68
2022/11/30 07:11:12;;;;;;;47.30;30.60;;;;;;;-2.83;98.91;98006.92;107994;1266;69906;-68
2022/11/30 07:13:41;;;;;;;32.60;22.30;;;;;;;-2.71;99.24;98008.32;107960;1266;58942;-69
2022/11/30 07:16:10;;;;;;;43.40;29.00;;;;;;;-2.58;99.45;98012.29;107998;1267;58880;-69
2022/11/30 07:18:39;;;;;;;52.80;32.60;;;;;;;-2.49;98.62;98017.48;107985;1269;70545;-72
2022/11/30 07:21:09;;;;;;;57.70;38.80;;;;;;;-2.40;98.32;98013.96;108015;1267;69905;-69
2022/11/30 07:26:26;;;;;;;45.80;30.70;;;;;;;-2.13;98.36;98011.76;107969;1267;58961;-70
2022/11/30 07:28:57;;;;;;;46.00;31.10;;;;;;;-1.97;98.09;98012.23;108016;1267;58855;-70
2022/11/30 07:31:28;;;;;;;49.40;29.90;;;;;;;-1.81;97.48;98012.69;108029;1267;70989;-70
2022/11/30 07:34:01;;;;;;;43.90;31.00;;;;;;;-1.65;97.19;98013.33;108005;1262;69150;-70
2022/11/30 07:36:30;;;;;;;45.50;30.90;;;;;;;-1.48;96.66;98017.00;108003;1267;69882;-70
2022/11/30 07:38:59;;;;;;;59.30;40.70;;;;;;;-1.35;95.91;98016.96;107945;1267;58981;-70
2022/11/30 07:41:28;;;;;;;63.80;40.30;;;;;;;-1.22;94.91;98013.01;107990;1267;58871;-69
2022/11/30 07:43:58;;;;;;;65.60;43.20;;;;;;;-1.11;94.73;98015.73;107986;1267;71310;-69
2022/11/30 07:46:27;;;;;;;54.50;35.10;;;;;;;-0.99;94.83;98015.54;107985;1267;68308;-69
2022/11/30 07:48:55;;;;;;;65.80;41.60;;;;;;;-0.83;94.67;98016.63;107982;1264;69265;-71
2022/11/30 07:51:24;;;;;;;65.30;43.90;;;;;;;-0.71;94.67;98010.93;107961;1267;58923;-69
2022/11/30 07:53:55;;;;;;;72.40;49.70;;;;;;;-0.62;94.21;98016.23;107976;1263;58877;-68
2022/11/30 07:56:25;;;;;;;83.50;56.50;;;;;;;-0.57;93.51;98015.27;107937;1267;71018;-68
2022/11/30 07:59:00;;;;;;;80.10;53.40;;;;;;;-0.52;93.11;98019.98;108001;1263;68366;-68
2022/11/30 08:01:31;;;;;;;62.90;44.90;;;;;;;-0.49;92.59;98023.20;107964;1266;68659;-69
2022/11/30 08:04:02;;;;;;;69.30;45.50;;;;;;;-0.47;92.97;98021.77;107992;1266;58952;-69
2022/11/30 08:06:31;;;;;;;105.00;68.60;;;;;;;-0.44;92.80;98023.61;107972;1267;58959;-70
2022/11/30 08:09:02;;;;;;;104.30;70.30;;;;;;;-0.46;93.09;98026.39;108024;1264;69757;-70
2022/11/30 08:11:34;;;;;;;122.60;87.00;;;;;;;-0.41;93.09;98025.95;108017;1267;68382;-69
2022/11/30 08:14:03;;;;;;;124.20;85.00;;;;;;;-0.40;92.61;98026.09;107936;1267;68224;-67
2022/11/30 08:16:36;;;;;;;119.50;79.10;;;;;;;-0.37;92.82;98024.31;107992;1267;58956;-66
2022/11/30 08:19:05;;;;;;;118.60;80.10;;;;;;;-0.34;93.23;98023.92;108001;1267;58990;-66
2022/11/30 08:21:34;;;;;;;91.40;65.60;;;;;;;-0.25;93.53;98025.80;107999;1267;70377;-65
2022/11/30 08:24:04;;;;;;;88.30;66.30;;;;;;;-0.17;93.30;98026.34;107993;1265;69002;-67
2022/11/30 08:26:33;;;;;;;84.40;62.10;;;;;;;-0.09;93.06;98027.20;107950;1263;70161;-67
2022/11/30 08:29:02;;;;;;;77.20;59.30;;;;;;;-0.01;92.96;98029.61;107924;1265;58958;-68
2022/11/30 08:31:35;;;;;;;88.70;66.50;;;;;;;0.13;92.62;98029.82;107712;1267;58963;-67
2022/11/30 08:34:06;;;;;;;80.90;57.80;;;;;;;0.25;92.20;98030.94;107654;1267;70551;-67
2022/11/30 08:36:35;;;;;;;76.20;53.50;;;;;;;0.39;92.12;98027.71;107738;1263;69727;-68
2022/11/30 08:39:06;;;;;;;72.90;53.70;;;;;;;0.49;91.81;98027.84;107639;1267;69036;-67
2022/11/30 08:41:35;;;;;;;60.70;43.60;;;;;;;0.63;91.34;98025.61;107608;1266;59102;-67
2022/11/30 08:44:04;;;;;;;49.80;40.00;;;;;;;0.82;90.59;98031.52;107647;1267;58896;-67
2022/11/30 08:46:34;;;;;;;46.70;34.60;;;;;;;1.00;90.06;98031.43;107668;1267;70109;-67
2022/11/30 08:49:20;;;;;;;42.20;31.60;;;;;;;1.18;88.83;98032.36;107672;1267;69518;-69
2022/11/30 08:51:54;;;;;;;43.10;30.30;;;;;;;1.40;87.50;98031.28;107601;1267;68722;-69
2022/11/30 08:54:44;;;;;;;42.60;29.70;;;;;;;1.76;86.14;98025.16;107614;1263;59754;-67
2022/11/30 08:57:20;;;;;;;52.00;38.70;;;;;;;2.31;85.07;98014.61;107650;1266;59705;-67
2022/11/30 08:59:48;;;;;;;42.60;29.90;;;;;;;3.27;82.39;98011.34;107726;1266;72011;-68
2022/11/30 09:02:18;;;;;;;27.70;21.00;;;;;;;4.03;76.49;98004.20;107646;1267;69283;-67
2022/11/30 09:04:49;;;;;;;21.70;18.40;;;;;;;4.63;74.46;98000.20;107680;1267;68229;-67
2022/11/30 09:07:18;;;;;;;24.40;17.60;;;;;;;5.05;71.85;97998.64;107748;1267;59856;-68
2022/11/30 09:09:47;;;;;;;20.00;16.10;;;;;;;5.75;74.19;97998.41;107725;1267;59729;-67
2022/11/30 09:12:16;;;;;;;18.70;13.70;;;;;;;6.54;71.87;97995.89;107779;1267;71383;-69
2022/11/30 09:14:47;;;;;;;22.00;17.40;;;;;;;7.01;69.44;97993.45;107941;1267;69376;-69
2022/11/30 09:17:25;;;;;;;;;;;;;;;7.37;73.83;97994.27;107752;1267;69922;-68
2022/11/30 09:19:54;;;;;;;29.80;23.80;;;;;;;7.20;63.75;97991.13;107744;1267;59749;-68
2022/11/30 09:22:23;;;;;;;32.70;24.70;;;;;;;7.67;68.78;97990.12;107972;1267;59734;-68
2022/11/30 09:24:52;;;;;;;29.30;24.00;;;;;;;8.28;68.64;97986.69;107949;1262;70620;-68
2022/11/30 09:27:22;;;;;;;25.40;20.20;;;;;;;8.40;60.01;97981.77;107872;1266;69828;-68
2022/11/30 09:29:51;;;;;;;24.20;18.10;;;;;;;8.92;58.39;97979.88;107892;1267;69747;-69
2022/11/30 09:32:19;;;;;;;20.90;16.10;;;;;;;9.13;56.30;97976.38;107913;1267;59770;-69
2022/11/30 09:34:48;;;;;;;24.10;18.70;;;;;;;9.72;54.67;97971.65;107887;1263;59658;-69
2022/11/30 09:37:18;;;;;;;28.20;21.40;;;;;;;9.97;52.61;97964.23;107899;1263;71217;-70
2022/11/30 09:39:47;;;;;;;25.80;21.80;;;;;;;10.69;53.00;97963.20;107761;1264;69391;-69
2022/11/30 09:42:47;;;;;;;24.30;20.50;;;;;;;12.02;53.41;97961.63;108021;1267;69486;-69
2022/11/30 09:45:22;;;;;;;27.00;22.60;;;;;;;12.73;45.87;97958.63;107721;1267;59722;-70
2022/11/30 09:48:06;;;;;;;21.50;19.00;;;;;;;12.89;46.31;97960.80;107843;1267;59719;-69
2022/11/30 09:50:42;;;;;;;24.50;20.20;;;;;;;13.02;44.76;97958.63;107702;1267;72139;-69
2022/11/30 09:53:43;;;;;;;18.90;16.50;;;;;;;13.49;43.33;97959.56;107811;1266;70162;-69
2022/11/30 09:56:36;;;;;;;14.20;12.20;;;;;;;13.51;42.08;97952.85;107574;1266;68870;-69
2022/11/30 09:59:19;;;;;;;15.50;13.00;;;;;;;14.09;40.63;97940.29;107739;1267;59787;-70
2022/11/30 10:01:48;;;;;;;16.20;14.10;;;;;;;14.20;40.48;97939.10;107766;1267;59713;-68
2022/11/30 10:04:27;;;;;;;14.50;12.10;;;;;;;14.43;39.93;97941.02;107847;1267;72039;-70
2022/11/30 10:07:29;;;;;;;12.60;11.30;;;;;;;15.04;38.88;97946.88;107708;1267;69299;-70
2022/11/30 10:10:23;;;;;;;13.80;12.30;;;;;;;15.39;39.18;97945.08;107860;1267;70030;-69
2022/11/30 10:13:33;;;;;;;12.40;11.10;;;;;;;13.81;39.48;97948.95;107865;1263;59779;-69
2022/11/30 10:16:46;;;;;;;13.60;11.20;;;;;;;12.70;41.76;97952.95;107701;1264;59726;-68
2022/11/30 10:19:26;;;;;;;12.90;11.50;;;;;;;10.94;45.01;97950.27;107311;1276;72134;-68
2022/11/30 10:22:39;;;;;;;12.00;9.80;;;;;;;10.25;46.79;97952.73;107666;1267;68959;-69
2022/11/30 10:25:28;;;;;;;13.40;11.40;;;;;;;9.45;49.62;97955.92;107291;1273;70350;-68
2022/11/30 10:28:03;;;;;;;14.60;12.30;;;;;;;9.41;49.91;97956.83;107756;1267;59718;-69
2022/11/30 10:30:51;;;;;;;15.60;12.40;;;;;;;8.98;51.39;97952.38;107803;1257;59693;-71
2022/11/30 10:33:29;;;;;;;15.80;13.10;;;;;;;8.87;51.77;97948.67;107630;1263;71383;-71
2022/11/30 10:36:12;;;;;;;14.20;11.70;;;;;;;8.70;52.28;97945.88;107624;1267;69898;-72
2022/11/30 10:38:51;;;;;;;13.90;10.40;;;;;;;8.64;51.83;97938.55;107773;1267;69222;-72
2022/11/30 10:41:41;;;;;;;12.80;9.60;;;;;;;7.80;53.73;97932.50;107638;1263;59754;-73
2022/11/30 10:44:27;;;;;;;14.30;10.50;;;;;;;7.98;53.56;97932.93;107612;1266;59732;-70
2022/11/30 10:47:21;;;;;;;11.20;9.90;;;;;;;8.14;53.24;97931.05;107642;1267;71921;-70
2022/11/30 10:49:51;;;;;;;12.40;9.50;;;;;;;8.88;52.82;97941.36;107630;1264;69860;-72
2022/11/30 10:52:27;;;;;;;11.70;8.80;;;;;;;9.75;50.70;97935.66;107641;1263;69895;-72
2022/11/30 10:54:56;;;;;;;13.10;10.10;;;;;;;10.55;48.74;97938.14;107626;1267;59775;-72
2022/11/30 10:57:32;;;;;;;16.40;12.90;;;;;;;10.96;47.98;97934.95;107629;1267;59695;-71
2022/11/30 11:00:05;;;;;;;13.00;10.70;;;;;;;12.05;46.78;97927.31;107699;1267;70547;-71
2022/11/30 11:02:50;;;;;;;12.50;10.10;;;;;;;12.68;43.34;97926.70;107675;1267;68232;-72
2022/11/30 11:05:28;;;;;;;10.30;8.90;;;;;;;13.83;41.29;97922.06;107646;1267;69636;-72
2022/11/30 11:08:03;;;;;;;12.80;10.20;;;;;;;14.39;39.78;97916.58;107661;1270;59730;-70
2022/11/30 11:10:53;;;;;;;13.40;11.50;;;;;;;14.45;40.26;97911.87;107640;1267;59717;-70
2022/11/30 11:13:42;;;;;;;12.10;10.80;;;;;;;14.42;40.72;97913.02;107719;1267;72009;-72
2022/11/30 11:16:12;;;;;;;11.30;10.00;;;;;;;13.57;40.57;97908.95;107633;1267;69778;-71
2022/11/30 11:18:56;;;;;;;11.90;10.30;;;;;;;13.03;41.40;97911.87;107670;1267;69902;-71
2022/11/30 11:21:26;;;;;;;12.20;9.80;;;;;;;12.26;43.11;97910.30;107588;1267;59768;-72
2022/11/30 11:23:56;;;;;;;15.20;11.40;;;;;;;11.29;44.72;97905.29;107659;1267;59747;-71
2022/11/30 11:26:27;;;;;;;14.80;11.90;;;;;;;10.58;46.99;97904.48;107686;1267;71193;-71
2022/11/30 11:29:01;;;;;;;11.50;10.10;;;;;;;10.01;48.50;97902.51;107674;1267;70247;-71
2022/11/30 11:31:30;;;;;;;11.50;10.30;;;;;;;10.01;48.27;97903.77;107692;1262;68366;-71
2022/11/30 11:33:59;;;;;;;16.70;11.80;;;;;;;9.60;49.85;97904.35;107615;1267;59768;-70
2022/11/30 11:36:35;;;;;;;24.20;19.50;;;;;;;9.33;52.13;97903.55;107719;1267;59731;-71
2022/11/30 11:39:24;;;;;;;24.30;19.00;;;;;;;9.17;52.93;97903.13;107681;1267;71317;-71